Time;durP1;ratioP1;P1;durP2;ratioP2;P2;SDS_P1;SDS_P2;PMS_P1;PMS_P2;Temp;Humidity;BMP_temperature;BMP_pressure;BME280_temperature;BME280_humidity;BME280_pressure;Samples;Min_cycle;Max_cycle;Signal;HPM_P1;HPM_P2
2020/12/02 00:01:11;;;;;;;85.70;34.97;;;;;;;;;;5104778;28;20050;-77
2020/12/02 00:03:39;;;;;;;84.35;34.30;;;;;;;;;;5087714;28;20126;-78
2020/12/02 00:06:07;;;;;;;84.82;34.85;;;;;;;;;;5070295;28;20411;-79
2020/12/02 00:08:53;;;;;;;81.50;33.42;;;;;;;;;;5066221;28;20487;-79
2020/12/02 00:11:19;;;;;;;84.43;34.15;;;;;;;;;;5051615;28;20083;-78
2020/12/02 00:13:47;;;;;;;82.32;34.47;;;;;;;;;;5053081;28;20117;-79
2020/12/02 00:16:21;;;;;;;78.10;31.98;;;;;;;;;;5051595;28;20041;-78
2020/12/02 00:18:50;;;;;;;77.50;33.30;;;;;;;;;;5043856;28;20044;-78
2020/12/02 00:21:16;;;;;;;82.22;32.97;;;;;;;;;;5054305;28;20044;-77
2020/12/02 00:23:45;;;;;;;85.90;33.95;;;;;;;;;;5071532;28;20040;-78
2020/12/02 00:26:13;;;;;;;87.60;35.72;;;;;;;;;;5055369;28;20052;-78
2020/12/02 00:28:39;;;;;;;87.85;35.38;;;;;;;;;;5072589;28;20476;-78
2020/12/02 00:31:06;;;;;;;82.30;34.65;;;;;;;;;;5073755;28;20041;-79
2020/12/02 00:33:32;;;;;;;83.55;34.17;;;;;;;;;;5057596;28;20063;-79
2020/12/02 00:35:58;;;;;;;83.30;34.05;;;;;;;;;;5096035;28;20056;-79
2020/12/02 00:38:26;;;;;;;87.57;34.10;;;;;;;;;;5104348;28;20044;-79
2020/12/02 00:40:55;;;;;;;80.45;32.58;;;;;;;;;;5087258;28;20040;-79
2020/12/02 00:43:23;;;;;;;80.65;33.38;;;;;;;;;;5096993;28;20070;-79
2020/12/02 00:45:51;;;;;;;80.18;33.60;;;;;;;;;;5097429;28;20083;-76
2020/12/02 00:48:19;;;;;;;84.80;33.70;;;;;;;;;;5081650;28;20044;-79
2020/12/02 00:50:46;;;;;;;79.72;32.95;;;;;;;;;;5095939;28;20040;-79
2020/12/02 00:53:14;;;;;;;82.07;33.70;;;;;;;;;;5057269;28;20056;-78
2020/12/02 00:55:42;;;;;;;77.93;32.33;;;;;;;;;;5076841;28;20457;-79
2020/12/02 00:58:11;;;;;;;81.95;32.85;;;;;;;;;;5059579;28;20059;-79
2020/12/02 01:00:42;;;;;;;81.35;33.40;;;;;;;;;;5062320;28;20503;-79
2020/12/02 01:03:26;;;;;;;88.82;34.53;;;;;;;;;;5080420;28;20044;-79
2020/12/02 01:05:53;;;;;;;77.15;32.53;;;;;;;;;;5078435;28;20298;-77
2020/12/02 01:08:25;;;;;;;82.53;32.97;;;;;;;;;;5057553;28;20056;-78
2020/12/02 01:10:55;;;;;;;79.80;32.78;;;;;;;;;;5094039;28;20044;-79
2020/12/02 01:13:23;;;;;;;78.88;32.03;;;;;;;;;;5076171;28;20491;-78
2020/12/02 01:15:50;;;;;;;82.38;32.75;;;;;;;;;;5075235;28;20040;-77
2020/12/02 01:18:25;;;;;;;81.72;32.70;;;;;;;;;;5076988;28;20058;-79
2020/12/02 01:20:59;;;;;;;83.68;32.47;;;;;;;;;;5059758;28;20052;-78
2020/12/02 01:23:26;;;;;;;80.60;32.17;;;;;;;;;;5053005;28;20072;-78
2020/12/02 01:25:52;;;;;;;80.32;33.53;;;;;;;;;;5055023;28;20047;-79
2020/12/02 01:28:21;;;;;;;79.22;31.63;;;;;;;;;;5054137;28;20051;-78
2020/12/02 01:30:48;;;;;;;79.85;31.98;;;;;;;;;;5071153;28;20044;-78
2020/12/02 01:33:17;;;;;;;85.25;32.13;;;;;;;;;;5055524;28;20051;-78
2020/12/02 01:35:45;;;;;;;77.38;31.70;;;;;;;;;;5037307;28;20242;-76
2020/12/02 01:38:13;;;;;;;82.32;32.35;;;;;;;;;;5070329;28;20079;-79
2020/12/02 01:40:39;;;;;;;81.28;31.65;;;;;;;;;;5073135;28;20075;-79
2020/12/02 01:43:08;;;;;;;82.53;32.63;;;;;;;;;;5039537;28;20052;-78
2020/12/02 01:45:45;;;;;;;83.50;31.27;;;;;;;;;;5055115;28;20403;-78
2020/12/02 01:48:11;;;;;;;82.75;32.10;;;;;;;;;;5090996;22;20044;-79
2020/12/02 01:50:45;;;;;;;75.97;31.05;;;;;;;;;;5076896;28;20060;-79
2020/12/02 01:53:17;;;;;;;73.78;29.45;;;;;;;;;;5077462;28;20106;-79
2020/12/02 01:55:54;;;;;;;79.50;31.05;;;;;;;;;;5059457;28;20044;-79
2020/12/02 01:58:30;;;;;;;79.57;31.30;;;;;;;;;;5058714;28;20499;-79
2020/12/02 02:01:07;;;;;;;79.15;31.08;;;;;;;;;;5044149;28;20029;-78
2020/12/02 02:03:38;;;;;;;75.13;30.02;;;;;;;;;;5074716;28;20380;-79
2020/12/02 02:09:47;;;;;;;79.88;30.98;;;;;;;;;;5072371;28;20416;-79
2020/12/02 02:12:14;;;;;;;83.38;32.13;;;;;;;;;;5047431;28;20037;-82
2020/12/02 02:15:01;;;;;;;82.65;31.58;;;;;;;;;;5037420;28;20090;-79
2020/12/02 02:17:28;;;;;;;78.32;30.55;;;;;;;;;;5008116;28;20530;-78
2020/12/02 02:19:56;;;;;;;82.00;31.85;;;;;;;;;;5053246;28;20338;-80
2020/12/02 02:22:22;;;;;;;82.97;31.67;;;;;;;;;;5052708;28;20099;-79
2020/12/02 02:24:49;;;;;;;84.53;31.75;;;;;;;;;;5075319;28;20051;-79
2020/12/02 02:27:18;;;;;;;85.40;31.23;;;;;;;;;;5033764;28;20051;-83
2020/12/02 02:29:46;;;;;;;81.18;31.20;;;;;;;;;;5056562;28;20409;-80
2020/12/02 02:32:20;;;;;;;75.10;29.58;;;;;;;;;;5057507;28;20053;-80
2020/12/02 02:34:48;;;;;;;82.35;31.70;;;;;;;;;;5050064;28;20094;-80
2020/12/02 02:37:17;;;;;;;77.65;30.40;;;;;;;;;;5074412;28;20055;-80
2020/12/02 02:39:45;;;;;;;84.30;32.58;;;;;;;;;;5076238;28;20055;-79
2020/12/02 02:42:28;;;;;;;78.88;32.30;;;;;;;;;;5056419;28;20075;-80
2020/12/02 02:44:54;;;;;;;78.68;31.38;;;;;;;;;;5041440;28;20056;-79
2020/12/02 02:47:21;;;;;;;75.78;30.55;;;;;;;;;;5056682;28;20044;-79
2020/12/02 02:49:49;;;;;;;71.50;29.33;;;;;;;;;;5076161;28;20112;-79
2020/12/02 02:52:19;;;;;;;73.70;28.63;;;;;;;;;;5058016;28;20044;-79
2020/12/02 02:54:51;;;;;;;70.57;29.08;;;;;;;;;;5074862;28;20495;-78
2020/12/02 02:57:24;;;;;;;68.10;27.27;;;;;;;;;;5074865;28;20119;-79
2020/12/02 02:59:57;;;;;;;70.90;29.48;;;;;;;;;;5092992;28;20024;-79
2020/12/02 03:02:33;;;;;;;67.57;28.02;;;;;;;;;;5060731;28;20044;-80
2020/12/02 03:05:08;;;;;;;72.97;28.92;;;;;;;;;;5092647;28;20075;-81
2020/12/02 03:07:36;;;;;;;74.47;29.50;;;;;;;;;;5088631;28;20051;-81
2020/12/02 03:10:06;;;;;;;66.07;27.42;;;;;;;;;;5039580;28;20051;-80
2020/12/02 03:12:33;;;;;;;66.88;28.02;;;;;;;;;;5069833;28;20048;-80
2020/12/02 03:15:00;;;;;;;64.78;27.48;;;;;;;;;;5043089;28;20098;-80
2020/12/02 03:17:27;;;;;;;66.13;27.05;;;;;;;;;;5069470;28;20071;-80
2020/12/02 03:19:57;;;;;;;64.88;26.90;;;;;;;;;;5041554;28;20056;-80
2020/12/02 03:22:24;;;;;;;68.43;28.63;;;;;;;;;;5038779;28;20053;-79
2020/12/02 03:24:54;;;;;;;68.15;27.60;;;;;;;;;;5055443;28;20412;-79
2020/12/02 03:27:22;;;;;;;66.20;26.95;;;;;;;;;;5053814;28;20052;-80
2020/12/02 03:29:49;;;;;;;66.93;27.17;;;;;;;;;;5053306;28;20645;-80
2020/12/02 03:32:15;;;;;;;68.13;27.65;;;;;;;;;;5024290;28;20060;-79
2020/12/02 03:34:44;;;;;;;60.78;26.15;;;;;;;;;;5040292;28;20108;-80
2020/12/02 03:37:11;;;;;;;69.57;27.70;;;;;;;;;;5004536;28;20175;-80
2020/12/02 03:39:39;;;;;;;62.75;26.73;;;;;;;;;;5036087;28;20071;-79
2020/12/02 03:42:06;;;;;;;65.43;26.63;;;;;;;;;;5020814;28;20045;-80
2020/12/02 03:44:32;;;;;;;69.63;27.35;;;;;;;;;;5035721;28;20053;-80
2020/12/02 03:46:59;;;;;;;67.93;27.98;;;;;;;;;;5016272;28;20041;-79
2020/12/02 03:49:26;;;;;;;66.70;26.23;;;;;;;;;;5034301;28;20111;-79
2020/12/02 03:51:53;;;;;;;65.55;26.70;;;;;;;;;;5019616;28;20053;-80
2020/12/02 03:54:19;;;;;;;67.95;27.52;;;;;;;;;;5054594;28;20037;-80
2020/12/02 03:56:46;;;;;;;68.97;27.98;;;;;;;;;;5038430;28;20057;-80
2020/12/02 03:59:13;;;;;;;61.80;26.20;;;;;;;;;;5038822;28;20037;-79
2020/12/02 04:01:40;;;;;;;70.97;27.55;;;;;;;;;;5041040;28;20064;-79
2020/12/02 04:04:07;;;;;;;69.43;28.30;;;;;;;;;;5039848;28;20118;-81
2020/12/02 04:06:33;;;;;;;70.70;30.13;;;;;;;;;;5027245;28;20049;-80
2020/12/02 04:09:00;;;;;;;69.43;28.88;;;;;;;;;;5027696;28;20512;-81
2020/12/02 04:11:27;;;;;;;70.38;28.08;;;;;;;;;;5027751;28;20061;-80
2020/12/02 04:13:53;;;;;;;72.20;30.08;;;;;;;;;;5058919;28;20075;-79
2020/12/02 04:16:20;;;;;;;71.30;28.42;;;;;;;;;;5036687;28;20048;-79
2020/12/02 04:18:46;;;;;;;71.95;29.17;;;;;;;;;;5054454;28;20086;-79
2020/12/02 04:21:13;;;;;;;71.20;29.25;;;;;;;;;;5057629;28;20259;-79
2020/12/02 04:23:39;;;;;;;74.15;29.30;;;;;;;;;;5041984;28;20048;-79
2020/12/02 04:26:06;;;;;;;73.53;29.98;;;;;;;;;;5043815;28;20131;-79
2020/12/02 04:28:33;;;;;;;74.93;30.30;;;;;;;;;;5078075;28;20090;-80
2020/12/02 04:30:59;;;;;;;74.10;29.85;;;;;;;;;;5040417;28;20566;-77
2020/12/02 04:33:26;;;;;;;75.78;29.10;;;;;;;;;;5050063;28;20040;-79
2020/12/02 04:35:54;;;;;;;75.93;30.85;;;;;;;;;;5050074;28;20044;-80
2020/12/02 04:38:24;;;;;;;71.95;29.05;;;;;;;;;;5032111;28;20404;-78
2020/12/02 04:40:51;;;;;;;69.45;29.00;;;;;;;;;;5026880;28;20412;-79
2020/12/02 04:43:36;;;;;;;73.40;29.70;;;;;;;;;;5067115;28;20041;-79
2020/12/02 04:46:08;;;;;;;74.55;31.02;;;;;;;;;;5029626;28;20098;-80
2020/12/02 04:48:36;;;;;;;74.72;30.23;;;;;;;;;;5046839;28;20037;-81
2020/12/02 04:51:16;;;;;;;74.18;30.58;;;;;;;;;;5030234;28;20062;-81
2020/12/02 04:53:47;;;;;;;66.20;28.30;;;;;;;;;;5046042;28;20041;-81
2020/12/02 04:56:13;;;;;;;81.15;31.02;;;;;;;;;;5028801;28;20041;-80
2020/12/02 04:58:42;;;;;;;73.93;29.77;;;;;;;;;;5044074;28;20045;-81
2020/12/02 05:01:13;;;;;;;73.13;29.40;;;;;;;;;;5057647;28;20133;-79
2020/12/02 05:04:06;;;;;;;70.38;28.75;;;;;;;;;;5047455;28;20052;-80
2020/12/02 05:06:38;;;;;;;74.75;28.88;;;;;;;;;;5070782;28;20067;-81
2020/12/02 05:09:12;;;;;;;76.60;29.25;;;;;;;;;;5059842;28;20483;-80
2020/12/02 05:11:41;;;;;;;71.10;28.98;;;;;;;;;;5060755;28;20423;-79
2020/12/02 05:14:12;;;;;;;81.15;29.38;;;;;;;;;;5076914;28;20518;-82
2020/12/02 05:16:40;;;;;;;78.07;29.67;;;;;;;;;;5076748;28;20063;-81
2020/12/02 05:19:15;;;;;;;74.88;30.45;;;;;;;;;;5060665;28;20040;-82
2020/12/02 05:21:50;;;;;;;75.47;29.42;;;;;;;;;;5039074;28;20443;-82
2020/12/02 05:24:20;;;;;;;73.35;28.02;;;;;;;;;;5054888;28;20094;-81
2020/12/02 05:26:52;;;;;;;70.78;28.52;;;;;;;;;;5072201;28;20052;-83
2020/12/02 05:29:52;;;;;;;71.47;28.38;;;;;;;;;;5072890;28;20044;-80
2020/12/02 05:32:26;;;;;;;75.50;29.02;;;;;;;;;;5041024;28;20500;-81
2020/12/02 05:34:56;;;;;;;55.53;21.53;;;;;;;;;;5076638;28;20052;-81
2020/12/02 05:37:42;;;;;;;70.90;28.45;;;;;;;;;;5058467;28;20087;-80
2020/12/02 05:40:14;;;;;;;70.53;27.27;;;;;;;;;;5076200;28;20045;-82
2020/12/02 05:42:45;;;;;;;67.53;27.10;;;;;;;;;;5057454;28;20316;-80
2020/12/02 05:45:21;;;;;;;71.85;28.27;;;;;;;;;;5076028;28;20068;-81
2020/12/02 05:47:52;;;;;;;74.65;29.05;;;;;;;;;;5074579;28;20066;-81
2020/12/02 05:50:26;;;;;;;73.68;28.02;;;;;;;;;;5036618;28;20037;-80
2020/12/02 05:53:16;;;;;;;73.03;28.20;;;;;;;;;;5060381;28;20442;-80
2020/12/02 05:55:59;;;;;;;69.97;26.75;;;;;;;;;;5080500;28;20040;-81
2020/12/02 05:58:33;;;;;;;76.22;28.00;;;;;;;;;;5081968;28;20055;-81
2020/12/02 06:01:03;;;;;;;67.30;26.65;;;;;;;;;;5072849;28;20064;-80
2020/12/02 06:03:34;;;;;;;73.45;27.27;;;;;;;;;;5067430;28;20037;-81
2020/12/02 06:06:11;;;;;;;65.88;26.45;;;;;;;;;;5033077;28;20343;-81
2020/12/02 06:08:39;;;;;;;69.93;26.58;;;;;;;;;;5078874;28;20041;-81
2020/12/02 06:11:15;;;;;;;68.95;27.73;;;;;;;;;;5075927;28;20073;-81
2020/12/02 06:13:48;;;;;;;70.78;27.35;;;;;;;;;;5040768;28;20098;-81
2020/12/02 06:16:33;;;;;;;68.38;28.15;;;;;;;;;;5053374;28;20045;-79
2020/12/02 06:19:12;;;;;;;73.18;28.05;;;;;;;;;;5055540;28;20045;-81
2020/12/02 06:21:42;;;;;;;68.10;26.30;;;;;;;;;;5053405;28;20072;-79
2020/12/02 06:24:47;;;;;;;67.80;26.25;;;;;;;;;;5033972;28;20441;-82
2020/12/02 06:27:18;;;;;;;66.18;27.75;;;;;;;;;;5023063;28;20041;-80
2020/12/02 06:30:01;;;;;;;69.85;25.63;;;;;;;;;;5054600;28;20037;-82
2020/12/02 06:32:31;;;;;;;67.60;26.98;;;;;;;;;;5053142;28;20041;-81
2020/12/02 06:35:27;;;;;;;69.80;27.45;;;;;;;;;;5054790;28;20049;-82
2020/12/02 06:38:21;;;;;;;67.80;26.88;;;;;;;;;;5037293;28;20049;-80
2020/12/02 06:41:03;;;;;;;75.40;28.88;;;;;;;;;;5055816;28;20037;-82
2020/12/02 06:43:47;;;;;;;73.68;27.75;;;;;;;;;;5052942;28;20476;-82
2020/12/02 06:46:14;;;;;;;71.75;28.30;;;;;;;;;;5054045;28;20090;-79
2020/12/02 06:52:35;;;;;;;71.25;28.10;;;;;;;;;;4972639;28;20526;-80
2020/12/02 06:55:27;;;;;;;73.55;27.42;;;;;;;;;;4986257;28;20034;-81
2020/12/02 06:58:15;;;;;;;74.25;28.63;;;;;;;;;;5053446;28;20041;-81
2020/12/02 07:00:49;;;;;;;79.00;29.10;;;;;;;;;;5037474;28;20045;-81
2020/12/02 07:03:27;;;;;;;76.15;29.27;;;;;;;;;;5055740;28;20447;-81
2020/12/02 07:06:09;;;;;;;98.47;33.58;;;;;;;;;;5035282;28;20106;-81
2020/12/02 07:08:43;;;;;;;104.75;34.60;;;;;;;;;;5035952;28;20062;-82
2020/12/02 07:11:22;;;;;;;107.55;35.75;;;;;;;;;;5037572;28;20043;-79
2020/12/02 07:17:01;;;;;;;79.03;30.20;;;;;;;;;;5035168;28;20295;-81
2020/12/02 07:19:44;;;;;;;80.40;29.85;;;;;;;;;;5051196;28;20049;-80
2020/12/02 07:22:25;;;;;;;74.80;28.13;;;;;;;;;;5035237;28;20072;-80
2020/12/02 07:25:08;;;;;;;77.47;29.00;;;;;;;;;;5052837;28;20104;-80
2020/12/02 07:27:47;;;;;;;75.95;27.52;;;;;;;;;;5053333;28;20045;-80
2020/12/02 07:30:36;;;;;;;78.45;28.02;;;;;;;;;;5027011;28;20037;-81
2020/12/02 07:33:24;;;;;;;78.60;29.77;;;;;;;;;;5057176;28;20056;-80
2020/12/02 07:36:27;;;;;;;75.00;28.15;;;;;;;;;;5058843;28;20045;-81
2020/12/02 07:39:12;;;;;;;76.03;28.35;;;;;;;;;;5057562;28;20029;-80
2020/12/02 07:41:59;;;;;;;86.40;31.33;;;;;;;;;;5060976;28;20061;-80
2020/12/02 07:44:41;;;;;;;110.55;34.55;;;;;;;;;;5059926;28;20043;-80
2020/12/02 07:47:28;;;;;;;109.47;34.00;;;;;;;;;;5066912;22;20063;-78
2020/12/02 07:50:06;;;;;;;107.57;34.08;;;;;;;;;;5095371;28;20424;-79
2020/12/02 07:52:38;;;;;;;93.35;33.38;;;;;;;;;;5075617;28;20449;-79
2020/12/02 07:55:05;;;;;;;101.75;31.77;;;;;;;;;;5075055;28;20044;-77
2020/12/02 07:57:33;;;;;;;87.30;30.67;;;;;;;;;;5075725;28;20048;-78
2020/12/02 08:00:23;;;;;;;81.53;31.00;;;;;;;;;;5076690;28;20213;-79
2020/12/02 08:02:50;;;;;;;79.82;30.25;;;;;;;;;;5064900;28;20134;-77
2020/12/02 08:05:39;;;;;;;79.57;31.77;;;;;;;;;;5078106;28;20539;-79
2020/12/02 08:08:06;;;;;;;70.75;29.73;;;;;;;;;;5082191;28;20071;-80
2020/12/02 08:10:34;;;;;;;67.88;28.98;;;;;;;;;;5077133;28;20070;-79
2020/12/02 08:13:03;;;;;;;65.72;27.85;;;;;;;;;;5094792;28;20106;-79
2020/12/02 08:15:29;;;;;;;64.70;28.02;;;;;;;;;;5075360;28;20039;-78
2020/12/02 08:18:14;;;;;;;57.85;27.05;;;;;;;;;;5057313;28;20055;-79
2020/12/02 08:20:42;;;;;;;58.25;26.88;;;;;;;;;;5070505;28;20148;-79
2020/12/02 08:23:16;;;;;;;61.17;26.20;;;;;;;;;;5056502;28;20052;-78
2020/12/02 08:25:43;;;;;;;54.42;26.27;;;;;;;;;;5092332;28;20444;-79
2020/12/02 08:28:10;;;;;;;60.78;27.27;;;;;;;;;;5073734;28;20044;-77
2020/12/02 08:30:38;;;;;;;57.10;26.38;;;;;;;;;;5093123;28;20048;-78
2020/12/02 08:33:06;;;;;;;56.95;26.25;;;;;;;;;;5058266;28;20407;-77
2020/12/02 08:35:32;;;;;;;63.33;27.27;;;;;;;;;;5057605;28;20060;-79
2020/12/02 08:37:59;;;;;;;51.58;25.35;;;;;;;;;;5091889;28;20066;-78
2020/12/02 08:40:31;;;;;;;46.42;23.25;;;;;;;;;;5092268;28;20040;-78
2020/12/02 08:43:21;;;;;;;46.20;22.50;;;;;;;;;;5092260;28;20077;-76
2020/12/02 08:46:07;;;;;;;50.60;23.20;;;;;;;;;;5090680;28;20492;-78
2020/12/02 08:48:38;;;;;;;45.60;22.60;;;;;;;;;;5093027;28;20051;-80
2020/12/02 08:51:11;;;;;;;46.83;23.85;;;;;;;;;;5094573;28;20102;-79
2020/12/02 08:53:38;;;;;;;46.92;23.30;;;;;;;;;;5057286;28;20051;-79
2020/12/02 08:56:12;;;;;;;47.15;22.42;;;;;;;;;;5093658;28;20440;-79
2020/12/02 08:58:38;;;;;;;43.40;21.77;;;;;;;;;;5093243;28;20054;-79
2020/12/02 09:01:04;;;;;;;40.92;21.80;;;;;;;;;;5093486;28;20048;-79
2020/12/02 09:03:30;;;;;;;45.33;21.90;;;;;;;;;;5092084;28;20153;-78
2020/12/02 09:05:57;;;;;;;45.20;22.05;;;;;;;;;;5093517;28;20365;-79
2020/12/02 09:08:24;;;;;;;40.30;21.83;;;;;;;;;;5074829;28;20040;-78
2020/12/02 09:10:51;;;;;;;41.60;21.88;;;;;;;;;;5094461;28;20410;-79
2020/12/02 09:13:17;;;;;;;43.78;22.55;;;;;;;;;;5082552;28;20043;-79
2020/12/02 09:15:44;;;;;;;38.88;21.60;;;;;;;;;;5065580;28;20044;-79
2020/12/02 09:18:09;;;;;;;42.17;23.02;;;;;;;;;;5082047;28;20059;-79
2020/12/02 09:20:35;;;;;;;45.00;23.77;;;;;;;;;;5074280;28;20123;-80
2020/12/02 09:23:02;;;;;;;46.33;23.45;;;;;;;;;;5092959;28;20064;-79
2020/12/02 09:25:29;;;;;;;44.10;24.00;;;;;;;;;;5092017;28;20415;-79
2020/12/02 09:27:56;;;;;;;41.15;21.90;;;;;;;;;;5093301;28;20047;-79
2020/12/02 09:30:22;;;;;;;39.10;21.48;;;;;;;;;;5075497;28;20400;-79
2020/12/02 09:32:48;;;;;;;40.72;21.65;;;;;;;;;;5092986;28;20040;-79
2020/12/02 09:35:14;;;;;;;35.38;19.67;;;;;;;;;;5074673;28;20043;-79
2020/12/02 09:37:40;;;;;;;35.05;20.35;;;;;;;;;;5074319;28;20055;-79
2020/12/02 09:40:10;;;;;;;36.55;21.08;;;;;;;;;;5092245;28;20048;-79
2020/12/02 09:42:37;;;;;;;34.38;19.80;;;;;;;;;;5093075;28;20638;-79
2020/12/02 09:45:06;;;;;;;33.15;18.42;;;;;;;;;;5091740;28;20043;-79
2020/12/02 09:47:32;;;;;;;31.52;18.77;;;;;;;;;;5090050;28;20032;-78
2020/12/02 09:49:59;;;;;;;34.25;19.55;;;;;;;;;;5073417;28;20040;-80
2020/12/02 09:52:37;;;;;;;34.00;18.13;;;;;;;;;;5090435;28;20281;-79
2020/12/02 09:55:26;;;;;;;32.20;18.48;;;;;;;;;;5073644;28;20028;-80
2020/12/02 09:57:53;;;;;;;33.78;18.27;;;;;;;;;;5074602;28;20044;-79
2020/12/02 10:00:22;;;;;;;32.80;18.42;;;;;;;;;;5057078;28;20397;-78
2020/12/02 10:02:54;;;;;;;36.40;17.23;;;;;;;;;;5056028;28;20052;-79
2020/12/02 10:05:35;;;;;;;27.90;16.42;;;;;;;;;;5072657;28;20048;-79
2020/12/02 10:08:09;;;;;;;28.00;16.95;;;;;;;;;;5072127;28;20558;-79
2020/12/02 10:10:54;;;;;;;31.35;17.92;;;;;;;;;;5071990;28;20055;-79
2020/12/02 10:13:31;;;;;;;28.63;16.65;;;;;;;;;;5090989;28;20044;-77
2020/12/02 10:16:01;;;;;;;28.75;17.08;;;;;;;;;;5089156;28;20067;-79
2020/12/02 10:18:30;;;;;;;28.40;16.75;;;;;;;;;;5092386;28;20479;-78
2020/12/02 10:21:03;;;;;;;27.65;16.45;;;;;;;;;;5073713;28;20082;-79
2020/12/02 10:23:29;;;;;;;32.08;17.05;;;;;;;;;;5089993;28;20040;-79
2020/12/02 10:26:08;;;;;;;29.42;16.60;;;;;;;;;;5091030;28;20040;-79
2020/12/02 10:28:45;;;;;;;29.23;16.42;;;;;;;;;;5091076;28;20542;-79
2020/12/02 10:31:30;;;;;;;32.20;17.13;;;;;;;;;;5072960;28;20054;-78
2020/12/02 10:33:56;;;;;;;26.63;15.63;;;;;;;;;;5075622;28;20051;-79
2020/12/02 10:36:26;;;;;;;29.45;16.38;;;;;;;;;;5094989;28;20043;-79
2020/12/02 10:38:54;;;;;;;27.25;16.58;;;;;;;;;;5095189;28;20051;-79
2020/12/02 10:41:21;;;;;;;30.63;17.02;;;;;;;;;;5096611;28;20043;-79
2020/12/02 10:43:47;;;;;;;31.10;16.75;;;;;;;;;;5096549;28;20047;-77
2020/12/02 10:46:18;;;;;;;31.30;15.70;;;;;;;;;;5077679;28;20109;-80
2020/12/02 10:48:57;;;;;;;30.42;15.80;;;;;;;;;;5084851;28;20060;-80
2020/12/02 10:51:26;;;;;;;36.03;16.83;;;;;;;;;;5096329;28;20118;-80
2020/12/02 10:53:52;;;;;;;30.00;16.08;;;;;;;;;;5107277;28;20043;-77
2020/12/02 10:56:20;;;;;;;33.65;16.42;;;;;;;;;;5071045;28;20044;-77
2020/12/02 10:58:48;;;;;;;33.10;17.05;;;;;;;;;;5090665;28;20052;-78
2020/12/02 11:01:15;;;;;;;35.88;17.23;;;;;;;;;;5089534;28;20036;-79
2020/12/02 11:03:41;;;;;;;38.75;17.08;;;;;;;;;;5072919;28;20048;-79
2020/12/02 11:06:14;;;;;;;33.97;16.38;;;;;;;;;;5089529;28;20044;-78
2020/12/02 11:08:44;;;;;;;32.78;16.35;;;;;;;;;;5054592;28;20047;-79
2020/12/02 11:11:30;;;;;;;39.90;17.85;;;;;;;;;;5071884;28;20129;-78
2020/12/02 11:14:08;;;;;;;36.63;17.60;;;;;;;;;;5071824;28;20036;-78
2020/12/02 11:16:38;;;;;;;35.90;17.13;;;;;;;;;;5053711;28;20040;-78
2020/12/02 11:19:04;;;;;;;37.20;17.00;;;;;;;;;;5071442;28;20050;-78
2020/12/02 11:21:43;;;;;;;34.67;16.90;;;;;;;;;;5071643;28;20032;-78
2020/12/02 11:24:22;;;;;;;37.55;16.58;;;;;;;;;;5070405;28;20055;-80
2020/12/02 11:26:49;;;;;;;33.25;16.70;;;;;;;;;;5089337;28;20035;-79
2020/12/02 11:29:19;;;;;;;36.00;16.60;;;;;;;;;;5056704;28;20379;-79
2020/12/02 11:32:03;;;;;;;32.08;16.40;;;;;;;;;;5072147;28;20044;-79
2020/12/02 11:34:33;;;;;;;31.38;15.80;;;;;;;;;;5090318;28;20138;-79
2020/12/02 11:37:12;;;;;;;32.92;16.67;;;;;;;;;;5090514;28;20040;-80
2020/12/02 11:39:54;;;;;;;31.40;16.48;;;;;;;;;;5091246;28;20047;-80
2020/12/02 11:42:32;;;;;;;28.73;16.38;;;;;;;;;;5074511;28;20082;-79
2020/12/02 11:45:05;;;;;;;35.67;16.30;;;;;;;;;;5079803;28;20056;-79
2020/12/02 11:47:40;;;;;;;28.70;16.08;;;;;;;;;;5084100;28;20040;-79
2020/12/02 11:50:22;;;;;;;26.40;15.73;;;;;;;;;;5104414;28;20055;-79
2020/12/02 11:52:57;;;;;;;30.05;16.73;;;;;;;;;;5065793;28;20462;-80
2020/12/02 11:55:30;;;;;;;29.88;17.13;;;;;;;;;;5090858;28;20037;-80
2020/12/02 11:57:57;;;;;;;32.20;17.63;;;;;;;;;;5072793;28;20056;-80
2020/12/02 12:00:24;;;;;;;35.53;17.85;;;;;;;;;;5057103;28;20483;-80
2020/12/02 12:02:57;;;;;;;33.03;17.65;;;;;;;;;;5064489;28;20510;-79
2020/12/02 12:05:25;;;;;;;31.25;17.55;;;;;;;;;;5098280;28;20048;-80
2020/12/02 12:07:57;;;;;;;35.38;18.27;;;;;;;;;;5095926;28;20044;-79
2020/12/02 12:10:28;;;;;;;31.30;17.30;;;;;;;;;;5072662;28;20050;-79
2020/12/02 12:13:02;;;;;;;32.80;17.00;;;;;;;;;;5090269;28;20041;-79
2020/12/02 12:15:47;;;;;;;41.42;17.83;;;;;;;;;;5091829;28;20040;-80
2020/12/02 12:18:16;;;;;;;34.28;17.38;;;;;;;;;;5059330;28;20048;-80
2020/12/02 12:20:48;;;;;;;35.08;17.58;;;;;;;;;;5093936;28;20097;-79
2020/12/02 12:23:30;;;;;;;35.92;17.98;;;;;;;;;;5093454;28;20072;-79
2020/12/02 12:25:57;;;;;;;37.55;17.77;;;;;;;;;;5075224;28;20463;-80
2020/12/02 12:28:26;;;;;;;36.28;18.35;;;;;;;;;;5093681;28;20043;-79
2020/12/02 12:30:54;;;;;;;40.85;18.90;;;;;;;;;;5093351;28;20068;-79
2020/12/02 12:33:24;;;;;;;35.95;17.98;;;;;;;;;;5093263;28;20600;-78
2020/12/02 12:36:02;;;;;;;38.75;18.50;;;;;;;;;;5092078;28;20487;-77
2020/12/02 12:38:40;;;;;;;40.10;19.00;;;;;;;;;;5092936;28;20044;-79
2020/12/02 12:41:12;;;;;;;41.50;19.58;;;;;;;;;;5058974;28;20063;-79
2020/12/02 12:43:46;;;;;;;43.92;19.75;;;;;;;;;;5093095;28;20054;-78
2020/12/02 12:46:17;;;;;;;46.70;19.77;;;;;;;;;;5076205;28;20075;-79
2020/12/02 12:48:45;;;;;;;46.22;20.92;;;;;;;;;;5094992;28;20364;-79
2020/12/02 12:51:11;;;;;;;43.28;20.20;;;;;;;;;;5077034;28;20040;-79
2020/12/02 12:53:40;;;;;;;48.17;21.60;;;;;;;;;;5093492;28;20048;-80
2020/12/02 12:56:10;;;;;;;48.47;21.58;;;;;;;;;;5092945;28;20279;-79
2020/12/02 12:58:38;;;;;;;56.38;22.27;;;;;;;;;;5094224;28;20043;-79
2020/12/02 13:01:05;;;;;;;49.50;21.65;;;;;;;;;;5076322;28;20564;-79
2020/12/02 13:03:31;;;;;;;50.00;22.38;;;;;;;;;;5075900;28;20044;-79
2020/12/02 13:06:03;;;;;;;50.00;22.23;;;;;;;;;;5062321;28;20082;-78
2020/12/02 13:08:36;;;;;;;50.80;22.05;;;;;;;;;;5100253;28;20048;-79
2020/12/02 13:11:07;;;;;;;49.97;22.23;;;;;;;;;;5074991;28;20075;-78
2020/12/02 13:13:50;;;;;;;56.97;23.15;;;;;;;;;;5093167;28;20392;-79
2020/12/02 13:16:36;;;;;;;58.72;23.38;;;;;;;;;;5093214;28;20048;-79
2020/12/02 13:19:15;;;;;;;52.05;22.70;;;;;;;;;;5076861;28;20760;-79
2020/12/02 13:21:53;;;;;;;55.00;23.17;;;;;;;;;;5075911;28;20044;-79
2020/12/02 13:24:25;;;;;;;56.33;24.25;;;;;;;;;;5075051;28;20048;-78
2020/12/02 13:26:56;;;;;;;55.50;23.75;;;;;;;;;;5074782;28;20044;-78
2020/12/02 13:29:38;;;;;;;56.60;24.17;;;;;;;;;;5094099;28;20040;-79
2020/12/02 13:32:04;;;;;;;61.35;25.27;;;;;;;;;;5094882;28;20502;-78
2020/12/02 13:34:30;;;;;;;71.15;26.05;;;;;;;;;;5059668;28;20044;-79
2020/12/02 13:36:57;;;;;;;60.17;24.60;;;;;;;;;;5093597;28;20032;-78
2020/12/02 13:39:24;;;;;;;60.65;24.83;;;;;;;;;;5079306;28;20056;-80
2020/12/02 13:41:55;;;;;;;59.40;24.75;;;;;;;;;;5081162;28;20059;-79
2020/12/02 13:44:24;;;;;;;55.28;24.05;;;;;;;;;;5074979;28;20051;-78
2020/12/02 13:46:51;;;;;;;56.55;24.67;;;;;;;;;;5091687;28;20044;-78
2020/12/02 13:49:18;;;;;;;66.85;25.75;;;;;;;;;;5076124;28;20048;-79
2020/12/02 13:51:54;;;;;;;56.50;24.17;;;;;;;;;;5074211;28;20048;-78
2020/12/02 13:54:34;;;;;;;60.55;25.42;;;;;;;;;;5091602;28;20040;-79
2020/12/02 13:57:17;;;;;;;61.38;25.35;;;;;;;;;;5091025;28;20101;-78
2020/12/02 13:59:51;;;;;;;59.40;25.20;;;;;;;;;;5093125;28;20040;-78
2020/12/02 14:02:32;;;;;;;67.22;25.40;;;;;;;;;;5092655;28;20051;-78
2020/12/02 14:05:05;;;;;;;63.40;26.80;;;;;;;;;;5092921;28;20349;-79
2020/12/02 14:07:34;;;;;;;67.15;27.77;;;;;;;;;;5090894;28;20043;-79
2020/12/02 14:10:08;;;;;;;67.60;26.20;;;;;;;;;;5058335;28;20458;-78
2020/12/02 14:12:35;;;;;;;47.17;19.05;;;;;;;;;;5074384;28;20044;-79
2020/12/02 14:15:02;;;;;;;59.90;25.42;;;;;;;;;;5095675;28;20054;-79
2020/12/02 14:17:30;;;;;;;58.28;23.92;;;;;;;;;;5093542;28;20044;-79
2020/12/02 14:19:57;;;;;;;61.53;26.02;;;;;;;;;;5052142;28;20056;-78
2020/12/02 14:22:27;;;;;;;64.85;25.13;;;;;;;;;;5094108;28;20127;-78
2020/12/02 14:24:59;;;;;;;61.67;25.08;;;;;;;;;;5075749;28;20051;-78
2020/12/02 14:27:32;;;;;;;57.65;23.52;;;;;;;;;;5092565;28;20039;-78
2020/12/02 14:29:59;;;;;;;64.90;26.08;;;;;;;;;;5096110;28;20119;-79
2020/12/02 14:32:27;;;;;;;64.90;26.20;;;;;;;;;;5093427;28;20044;-77
2020/12/02 14:34:53;;;;;;;62.20;26.10;;;;;;;;;;5092218;28;20043;-78
2020/12/02 14:37:20;;;;;;;63.28;25.55;;;;;;;;;;5091831;28;20265;-78
2020/12/02 14:39:47;;;;;;;68.03;26.17;;;;;;;;;;5075454;28;20058;-78
2020/12/02 14:42:14;;;;;;;63.63;25.88;;;;;;;;;;5078539;28;20044;-78
2020/12/02 14:44:41;;;;;;;56.55;24.58;;;;;;;;;;5090772;28;20040;-79
2020/12/02 14:47:11;;;;;;;61.28;25.42;;;;;;;;;;5070538;28;20087;-78
2020/12/02 14:49:37;;;;;;;65.47;26.73;;;;;;;;;;5093150;28;20095;-79
2020/12/02 14:52:03;;;;;;;64.22;26.15;;;;;;;;;;5095336;28;20097;-79
2020/12/02 14:54:29;;;;;;;61.58;26.15;;;;;;;;;;5078629;28;20056;-79